Météo Nord-Pas-de-Calais   La météo au plus près de chez vous

Station météorologique

Observations météo à Aurillac (15014)

15014004 632 m Dernier relevé à 21:06
22.5°C
Humidité 51 % Vent 5.8 km/h 1020.4 hPa

Journée consultée

Samedi 5 Septembre 2026

Synthèse de la journée

Périodes de référence en UTC

Température maximale

28.1°C

à 17:00

06h 06h

Température minimale

10.1°C

à 07:30

18h 18h

Rafale maximale

21 km/h

à 15:54

00h 00h

Précipitations

0 mm

Cumul quotidien

06h 06h

Ensoleillement

12h 20 mins

Durée quotidienne

00h 00h

Graphiques de la journée

Heure locale Réduire

Données détaillées

Relevés météo

Pas de 6 minutes Afficher les relevés infra-horaires
Relevés météo détaillés à Aurillac pour le Samedi 5 Septembre 2026
Heure Température °C Point de rosée °C Humidité % Vent moyen (raf.), km/h Précipitations mm Température à 10 cm °C Température à 20 cm °C Température à 50 cm °C Température à 100 cm °C Visibilité m État du sol   Ensoleillement min Rayonnement global W/m² Pression hPa
21:06 22.5 °C 14.9 °C 62 % 4 km/h (7 km/h) 0 mm0 mm 20.2 °C 19.9 °C 19.3 °C 18.3 °C 60000 m 0   0 min 0 W/m² 1021.8 hPa
21:00 23.4 °C 14.7 °C 58 % 5 km/h (8 km/h) 0 mm0 mm 20.2 °C 19.9 °C 19.3 °C 18.3 °C 60000 m 0   0 min 0 W/m² 1021.5 hPa
20:54 23.5 °C 14.8 °C 58 % 5 km/h (8 km/h) 0 mm0 mm 20.2 °C 19.9 °C 19.3 °C 18.3 °C 60000 m 0   0 min 0 W/m² 1021.3 hPa
20:48 23.6 °C 15.1 °C 59 % 6 km/h (11 km/h) 0 mm0 mm 20.2 °C 19.9 °C 19.3 °C 18.2 °C 33710 m 0   0 min 0 W/m² 1021.2 hPa
20:42 22.8 °C 14.9 °C 61 % 5 km/h (11 km/h) 0 mm0 mm 20.2 °C 19.9 °C 19.3 °C 18.3 °C 16140 m 0   0 min 0 W/m² 1021.4 hPa
20:36 22.5 °C 15.3 °C 64 % 5 km/h (7 km/h) 0 mm0 mm 20.2 °C 19.9 °C 19.3 °C 18.3 °C 18980 m 0   0 min 0 W/m² 1021.3 hPa
20:30 22.3 °C 15.6 °C 66 % 6 km/h (8 km/h) 0 mm0 mm 20.2 °C 19.8 °C 19.3 °C 18.2 °C 46380 m 0   0 min 0 W/m² 1021.3 hPa
20:24 23.4 °C 15.4 °C 61 % 5 km/h (9 km/h) 0 mm0 mm 20.2 °C 19.9 °C 19.3 °C 18.3 °C 60000 m 0   0 min 0 W/m² 1021 hPa
20:18 24.7 °C 14.5 °C 53 % 6 km/h (9 km/h) 0 mm0 mm 20.2 °C 19.9 °C 19.3 °C 18.3 °C 60000 m 0   0 min 0 W/m² 1020.6 hPa
20:12 25.1 °C 14.5 °C 52 % 6 km/h (9 km/h) 0 mm0 mm 20.2 °C 19.8 °C 19.3 °C 18.3 °C 60000 m 0   0 min 0 W/m² 1020.5 hPa
20:06 25.5 °C 14.6 °C 51 % 6 km/h (9 km/h) 0 mm0 mm 20.2 °C 19.8 °C 19.3 °C 18.3 °C 60000 m 0   0 min 2.6 W/m² 1020.4 hPa
20:00 25.9 °C 14.4 °C 49 % 5 km/h (10 km/h) 0 mm0 mm 20.2 °C 19.8 °C 19.3 °C 18.3 °C 60000 m 0   4 min 10.5 W/m² 1020.3 hPa
19:54 26.2 °C 14.3 °C 48 % 6 km/h (10 km/h) 0 mm0 mm 20.2 °C 19.8 °C 19.3 °C 18.3 °C 60000 m 0   6 min 14.6 W/m² 1020.2 hPa
19:48 26.5 °C 14.6 °C 48 % 5 km/h (9 km/h) 0 mm0 mm 20.2 °C 19.8 °C 19.3 °C 18.3 °C 60000 m 0   6 min 18.6 W/m² 1020.2 hPa
19:42 26.6 °C 14.7 °C 48 % 5 km/h (8 km/h) 0 mm0 mm 20.2 °C 19.7 °C 19.3 °C 18.3 °C 60000 m 0   6 min 22.5 W/m² 1020.2 hPa
19:36 26.6 °C 14.7 °C 48 % 6 km/h (9 km/h) 0 mm0 mm 20.2 °C 19.7 °C 19.3 °C 18.2 °C 60000 m 0   6 min 24.2 W/m² 1020.2 hPa
19:30 26.6 °C 14.7 °C 48 % 5 km/h (9 km/h) 0 mm0 mm 20.2 °C 19.7 °C 19.3 °C 18.3 °C 60000 m 0   6 min 33.1 W/m² 1020.4 hPa
19:24 26.5 °C 14.6 °C 48 % 5 km/h (9 km/h) 0 mm0 mm 20.1 °C 19.7 °C 19.2 °C 18.2 °C 60000 m 0   6 min 37.2 W/m² 1020.4 hPa
19:18 26.5 °C 14.6 °C 48 % 7 km/h (11 km/h) 0 mm0 mm 20.1 °C 19.7 °C 19.3 °C 18.3 °C 60000 m 0   6 min 44.5 W/m² 1020.4 hPa
19:12 26.7 °C 14.8 °C 48 % 8 km/h (11 km/h) 0 mm0 mm 20.1 °C 19.7 °C 19.3 °C 18.3 °C 60000 m 0   6 min 53.9 W/m² 1020.3 hPa
19:06 26.6 °C 15.3 °C 50 % 7 km/h (12 km/h) 0 mm0 mm 20.1 °C 19.7 °C 19.3 °C 18.3 °C 60000 m 0   6 min 57.5 W/m² 1020.4 hPa
19:00 26.8 °C 14.9 °C 48 % 8 km/h (13 km/h) 0 mm0 mm 20.1 °C 19.6 °C 19.3 °C 18.3 °C 60000 m 0   6 min 63.3 W/m² 1020.3 hPa
18:54 27.2 °C 15.9 °C 50 % 8 km/h (12 km/h) 0 mm0 mm 20.1 °C 19.6 °C 19.2 °C 18.2 °C 60000 m 0   6 min 75.6 W/m² 1020.2 hPa
18:48 27.2 °C 14.6 °C 46 % 7 km/h (12 km/h) 0 mm0 mm 20.1 °C 19.6 °C 19.3 °C 18.3 °C 57270 m 0   6 min 82.2 W/m² 1020.2 hPa
18:42 27.4 °C 14.8 °C 46 % 6 km/h (12 km/h) 0 mm0 mm 20.1 °C 19.6 °C 19.3 °C 18.3 °C 59350 m 0   6 min 90.9 W/m² 1020.3 hPa
18:36 27.4 °C 15.4 °C 48 % 8 km/h (13 km/h) 0 mm0 mm 20 °C 19.6 °C 19.3 °C 18.3 °C 57010 m 0   6 min 93.7 W/m² 1020.4 hPa
18:30 27.3 °C 15 °C 47 % 9 km/h (14 km/h) 0 mm0 mm 20 °C 19.6 °C 19.3 °C 18.3 °C 58840 m 0   6 min 95.3 W/m² 1020.4 hPa
18:24 27.5 °C 14.8 °C 46 % 8 km/h (14 km/h) 0 mm0 mm 20 °C 19.6 °C 19.3 °C 18.2 °C 58250 m 0   6 min 103.1 W/m² 1020.2 hPa
18:18 27.8 °C 14.1 °C 43 % 8 km/h (13 km/h) 0 mm0 mm 20 °C 19.6 °C 19.3 °C 18.3 °C 58470 m 0   6 min 115.2 W/m² 1020.3 hPa
18:12 27.6 °C 15.3 °C 47 % 9 km/h (15 km/h) 0 mm0 mm 20 °C 19.6 °C 19.3 °C 18.3 °C 59780 m 0   6 min 119.9 W/m² 1020.3 hPa
18:06 27.4 °C 15.4 °C 48 % 10 km/h (15 km/h) 0 mm0 mm 20 °C 19.6 °C 19.3 °C 18.3 °C 56600 m 0   6 min 119.5 W/m² 1020.5 hPa
18:00 27.5 °C 15.5 °C 48 % 10 km/h (15 km/h) 0 mm0 mm 20 °C 19.5 °C 19.3 °C 18.3 °C 57350 m 0   6 min 125.5 W/m² 1020.3 hPa
17:54 27.5 °C 14.8 °C 46 % 10 km/h (15 km/h) 0 mm0 mm 19.9 °C 19.5 °C 19.3 °C 18.3 °C 59560 m 0   6 min 135.3 W/m² 1020.5 hPa
17:48 27.6 °C 14.6 °C 45 % 10 km/h (18 km/h) 0 mm0 mm 19.9 °C 19.5 °C 19.3 °C 18.3 °C 53670 m 0   6 min 144.2 W/m² 1020.3 hPa
17:42 27.6 °C 14.6 °C 45 % 9 km/h (18 km/h) 0 mm0 mm 19.9 °C 19.4 °C 19.2 °C 18.2 °C 48690 m 0   6 min 147.5 W/m² 1020.3 hPa
17:36 27.6 °C 14.6 °C 45 % 10 km/h (16 km/h) 0 mm0 mm 19.8 °C 19.5 °C 19.3 °C 18.3 °C 36770 m 0   6 min 154.5 W/m² 1020.3 hPa
17:30 27.5 °C 15.2 °C 47 % 11 km/h (16 km/h) 0 mm0 mm 19.9 °C 19.4 °C 19.3 °C 18.3 °C 40410 m 0   6 min 165.9 W/m² 1020.4 hPa
17:24 27.6 °C 14.9 °C 46 % 9 km/h (16 km/h) 0 mm0 mm 19.8 °C 19.4 °C 19.3 °C 18.3 °C 60000 m 0   6 min 169.2 W/m² 1020.4 hPa
17:18 27.6 °C 15.9 °C 49 % 9 km/h (15 km/h) 0 mm0 mm 19.8 °C 19.4 °C 19.3 °C 18.3 °C 59400 m 0   6 min 168.6 W/m² 1020.4 hPa
17:12 27.5 °C 15.2 °C 47 % 11 km/h (18 km/h) 0 mm0 mm 19.8 °C 19.4 °C 19.3 °C 18.3 °C 59400 m 0   6 min 168.4 W/m² 1020.6 hPa
17:06 27.6 °C 15.3 °C 47 % 10 km/h (17 km/h) 0 mm0 mm 19.8 °C 19.4 °C 19.3 °C 18.3 °C 56260 m 0   6 min 172.2 W/m² 1020.5 hPa
17:00 27.6 °C 14.9 °C 46 % 8 km/h (15 km/h) 0 mm0 mm 19.7 °C 19.4 °C 19.3 °C 18.3 °C 49210 m 0   6 min 177.4 W/m² 1020.5 hPa
16:54 27.5 °C 14.8 °C 46 % 10 km/h (19 km/h) 0 mm0 mm 19.7 °C 19.4 °C 19.3 °C 18.3 °C 50370 m 0   6 min 181.5 W/m² 1020.7 hPa
16:48 28 °C 15 °C 45 % 8 km/h (15 km/h) 0 mm0 mm 19.7 °C 19.3 °C 19.3 °C 18.3 °C 19870 m 0   6 min 199.8 W/m² 1020.5 hPa
16:42 27.9 °C 15.9 °C 48 % 9 km/h (18 km/h) 0 mm0 mm 19.6 °C 19.3 °C 19.3 °C 18.3 °C 19870 m 0   6 min 211.9 W/m² 1020.5 hPa
16:36 27.7 °C 14 °C 43 % 9 km/h (18 km/h) 0 mm0 mm 19.6 °C 19.3 °C 19.3 °C 18.3 °C 44380 m 0   6 min 215.6 W/m² 1020.8 hPa
16:30 27.7 °C 14 °C 43 % 9 km/h (16 km/h) 0 mm0 mm 19.6 °C 19.3 °C 19.3 °C 18.3 °C 54070 m 0   6 min 220.8 W/m² 1020.9 hPa
16:24 27.6 °C 16.2 °C 50 % 9 km/h (17 km/h) 0 mm0 mm 19.5 °C 19.3 °C 19.3 °C 18.3 °C 59010 m 0   6 min 225.7 W/m² 1020.8 hPa
16:18 27.7 °C 16.6 °C 51 % 8 km/h (18 km/h) 0 mm0 mm 19.5 °C 19.3 °C 19.3 °C 18.3 °C 45950 m 0   6 min 229.4 W/m² 1020.9 hPa
16:12 27.5 °C 15.2 °C 47 % 10 km/h (18 km/h) 0 mm0 mm 19.5 °C 19.2 °C 19.3 °C 18.3 °C 37560 m 0   6 min 232.1 W/m² 1021 hPa
16:06 27.6 °C 16.6 °C 51 % 12 km/h (20 km/h) 0 mm0 mm 19.5 °C 19.2 °C 19.3 °C 18.3 °C 44570 m 0   6 min 234.2 W/m² 1021 hPa
16:00 27.5 °C 14.8 °C 46 % 13 km/h (21 km/h) 0 mm0 mm 19.4 °C 19.2 °C 19.3 °C 18.3 °C 60000 m 0   6 min 240 W/m² 1021.1 hPa
15:54 27.5 °C 15.5 °C 48 % 12 km/h (21 km/h) 0 mm0 mm 19.4 °C 19.2 °C 19.3 °C 18.3 °C 41700 m 0   6 min 245.3 W/m² 1021.2 hPa
15:48 27.4 °C 15.1 °C 47 % 10 km/h (20 km/h) 0 mm0 mm 19.3 °C 19.2 °C 19.3 °C 18.3 °C 38050 m 0   6 min 249.8 W/m² 1021.1 hPa
15:42 27.2 °C 13.9 °C 44 % 11 km/h (18 km/h) 0 mm0 mm 19.3 °C 19.2 °C 19.3 °C 18.3 °C 56760 m 0   6 min 255.8 W/m² 1021.3 hPa
15:36 27.5 °C 15.5 °C 48 % 12 km/h (19 km/h) 0 mm0 mm 19.3 °C 19.2 °C 19.3 °C 18.3 °C 19950 m 0   6 min 260.8 W/m² 1021.2 hPa
15:30 27.4 °C 14.4 °C 45 % 12 km/h (19 km/h) 0 mm0 mm 19.2 °C 19.2 °C 19.3 °C 18.3 °C 19950 m 0   6 min 263.5 W/m² 1021.4 hPa
15:24 27.3 °C 13.6 °C 43 % 11 km/h (19 km/h) 0 mm0 mm 19.2 °C 19.2 °C 19.3 °C 18.3 °C 60000 m 0   6 min 266.3 W/m² 1021.5 hPa
15:18 27.6 °C 14.9 °C 46 % 9 km/h (18 km/h) 0 mm0 mm 19.2 °C 19.1 °C 19.3 °C 18.3 °C 60000 m 0   6 min 269 W/m² 1021.4 hPa
15:12 27.2 °C 15.9 °C 50 % 8 km/h (16 km/h) 0 mm0 mm 19.1 °C 19.1 °C 19.3 °C 18.3 °C 60000 m 0   6 min 272.3 W/m² 1021.5 hPa
15:06 27.1 °C 13.8 °C 44 % 10 km/h (19 km/h) 0 mm0 mm 19.1 °C 19.1 °C 19.3 °C 18.2 °C 59110 m 0   6 min 274.8 W/m² 1021.7 hPa
15:00 27.1 °C 14.5 °C 46 % 12 km/h (19 km/h) 0 mm0 mm 19.1 °C 19.1 °C 19.3 °C 18.2 °C 59110 m 0   6 min 277.5 W/m² 1021.6 hPa
14:54 27 °C 14.1 °C 45 % 12 km/h (20 km/h) 0 mm0 mm 19 °C 19.1 °C 19.3 °C 18.3 °C 60000 m 0   6 min 279.7 W/m² 1021.8 hPa
14:48 26.8 °C 13.2 °C 43 % 11 km/h (20 km/h) 0 mm0 mm 19 °C 19.1 °C 19.3 °C 18.3 °C 19480 m 0   6 min 282.3 W/m² 1021.9 hPa
14:42 27 °C 14.4 °C 46 % 12 km/h (20 km/h) 0 mm0 mm 19 °C 19.1 °C 19.3 °C 18.2 °C 19480 m 0   6 min 284.3 W/m² 1021.8 hPa
14:36 26.8 °C 14.5 °C 47 % 12 km/h (17 km/h) 0 mm0 mm 18.9 °C 19.1 °C 19.3 °C 18.3 °C 38520 m 0   6 min 285.4 W/m² 1021.8 hPa
14:30 26.6 °C 14 °C 46 % 12 km/h (21 km/h) 0 mm0 mm 18.9 °C 19.1 °C 19.3 °C 18.3 °C 19820 m 0   6 min 285 W/m² 1022 hPa
14:24 26.9 °C 14.6 °C 47 % 12 km/h (21 km/h) 0 mm0 mm 18.8 °C 19.1 °C 19.3 °C 18.3 °C 19790 m 0   6 min 284.1 W/m² 1021.9 hPa
14:18 26.5 °C 13.3 °C 44 % 12 km/h (20 km/h) 0 mm0 mm 18.8 °C 19.1 °C 19.3 °C 18.3 °C 19780 m 0   6 min 285 W/m² 1022 hPa
14:12 26.6 °C 14.4 °C 47 % 10 km/h (19 km/h) 0 mm0 mm 18.8 °C 19.1 °C 19.3 °C 18.3 °C 19990 m 0   6 min 287.1 W/m² 1022 hPa
14:06 26.4 °C 13.5 °C 45 % 11 km/h (18 km/h) 0 mm0 mm 18.7 °C 19.1 °C 19.3 °C 18.3 °C 55040 m 0   6 min 287.4 W/m² 1021.9 hPa
14:00 26.4 °C 13.8 °C 46 % 10 km/h (18 km/h) 0 mm0 mm 18.7 °C 19.1 °C 19.3 °C 18.3 °C 60000 m 0   6 min 287.1 W/m² 1021.9 hPa
13:54 26.4 °C 14.5 °C 48 % 8 km/h (17 km/h) 0 mm0 mm 18.7 °C 19.1 °C 19.3 °C 18.3 °C 47340 m 0   6 min 284.4 W/m² 1022 hPa
13:48 26 °C 12.8 °C 44 % 9 km/h (15 km/h) 0 mm0 mm 18.7 °C 19.1 °C 19.3 °C 18.3 °C 37600 m 0   6 min 277.3 W/m² 1022.2 hPa
13:42 26 °C 13.1 °C 45 % 9 km/h (14 km/h) 0 mm0 mm 18.6 °C 19.1 °C 19.3 °C 18.3 °C 46980 m 0   6 min 267.7 W/m² 1022.2 hPa
13:36 26 °C 13.8 °C 47 % 8 km/h (13 km/h) 0 mm0 mm 18.6 °C 19.1 °C 19.4 °C 18.3 °C 51840 m 0   6 min 257.9 W/m² 1022.1 hPa
13:30 25.9 °C 13.4 °C 46 % 7 km/h (14 km/h) 0 mm0 mm 18.6 °C 19.1 °C 19.3 °C 18.3 °C 19310 m 0   6 min 269.6 W/m² 1022.2 hPa
13:24 26.1 °C 13.6 °C 46 % 8 km/h (14 km/h) 0 mm0 mm 18.5 °C 19 °C 19.3 °C 18.3 °C 19310 m 0   6 min 279.8 W/m² 1022.1 hPa
13:18 25.7 °C 13.5 °C 47 % 8 km/h (13 km/h) 0 mm0 mm 18.5 °C 19.1 °C 19.3 °C 18.3 °C 19880 m 0   6 min 278.9 W/m² 1022.2 hPa
13:12 25.6 °C 12.4 °C 44 % 8 km/h (15 km/h) 0 mm0 mm 18.5 °C 19.1 °C 19.4 °C 18.3 °C 19880 m 0   6 min 276.7 W/m² 1022.3 hPa
13:06 25.5 °C 12.3 °C 44 % 9 km/h (17 km/h) 0 mm0 mm 18.4 °C 19.1 °C 19.3 °C 18.3 °C 58920 m 0   6 min 277.1 W/m² 1022.3 hPa
13:00 25.5 °C 12.7 °C 45 % 8 km/h (13 km/h) 0 mm0 mm 18.4 °C 19.1 °C 19.4 °C 18.3 °C 49030 m 0   6 min 276.2 W/m² 1022.4 hPa
12:54 25.5 °C 11.6 °C 42 % 8 km/h (15 km/h) 0 mm0 mm 18.4 °C 19.1 °C 19.4 °C 18.3 °C 36610 m 0   6 min 272.6 W/m² 1022.4 hPa
12:48 25.2 °C 11 °C 41 % 9 km/h (15 km/h) 0 mm0 mm 18.3 °C 19.1 °C 19.3 °C 18.3 °C 49620 m 0   6 min 267.6 W/m² 1022.5 hPa
12:42 25.3 °C 12.5 °C 45 % 8 km/h (15 km/h) 0 mm0 mm 18.3 °C 19.1 °C 19.3 °C 18.3 °C 47750 m 0   6 min 267.5 W/m² 1022.4 hPa
12:36 25.1 °C 12.3 °C 45 % 9 km/h (15 km/h) 0 mm0 mm 18.3 °C 19.1 °C 19.4 °C 18.3 °C 19680 m 0   6 min 266.2 W/m² 1022.6 hPa
12:30 24.9 °C 11.1 °C 42 % 9 km/h (16 km/h) 0 mm0 mm 18.2 °C 19.1 °C 19.3 °C 18.3 °C 19110 m 0   6 min 267.5 W/m² 1022.7 hPa
12:24 25 °C 12.6 °C 46 % 9 km/h (16 km/h) 0 mm0 mm 18.2 °C 19.1 °C 19.4 °C 18.3 °C 19420 m 0   6 min 267 W/m² 1022.6 hPa
12:18 24.9 °C 13.8 °C 50 % 8 km/h (14 km/h) 0 mm0 mm 18.2 °C 19.1 °C 19.4 °C 18.3 °C 47800 m 0   6 min 259.8 W/m² 1022.7 hPa
12:12 24.6 °C 10.8 °C 42 % 8 km/h (16 km/h) 0 mm0 mm 18.2 °C 19.1 °C 19.4 °C 18.3 °C 47320 m 0   6 min 260.1 W/m² 1022.8 hPa
12:06 24.5 °C 11.1 °C 43 % 10 km/h (19 km/h) 0 mm0 mm 18.2 °C 19.1 °C 19.4 °C 18.3 °C 19890 m 0   6 min 259.8 W/m² 1022.7 hPa
12:00 24.6 °C 12.9 °C 48 % 8 km/h (15 km/h) 0 mm0 mm 18.1 °C 19.1 °C 19.4 °C 18.3 °C 56470 m 0   6 min 253.6 W/m² 1022.6 hPa
11:54 24.2 °C 11.5 °C 45 % 10 km/h (15 km/h) 0 mm0 mm 18.1 °C 19.1 °C 19.4 °C 18.3 °C 57260 m 0   6 min 243.6 W/m² 1022.9 hPa
11:48 24.2 °C 10.8 °C 43 % 11 km/h (16 km/h) 0 mm0 mm 18.1 °C 19.1 °C 19.3 °C 18.3 °C 19460 m 0   6 min 238.3 W/m² 1022.9 hPa
11:42 24.3 °C 13.5 °C 51 % 9 km/h (14 km/h) 0 mm0 mm 18 °C 19.1 °C 19.4 °C 18.3 °C 19460 m 0   6 min 231.2 W/m² 1022.7 hPa
11:36 24.2 °C 12.5 °C 48 % 8 km/h (13 km/h) 0 mm0 mm 18 °C 19.1 °C 19.4 °C 18.3 °C 54730 m 0   6 min 227.2 W/m² 1022.7 hPa
11:30 24.2 °C 11.5 °C 45 % 8 km/h (13 km/h) 0 mm0 mm 18 °C 19.1 °C 19.4 °C 18.3 °C 45730 m 0   6 min 224.3 W/m² 1022.6 hPa
11:24 24.2 °C 15.1 °C 57 % 8 km/h (13 km/h) 0 mm0 mm 18 °C 19.1 °C 19.4 °C 18.3 °C 59050 m 0   6 min 223.5 W/m² 1022.5 hPa
11:18 23.7 °C 14.1 °C 55 % 6 km/h (11 km/h) 0 mm0 mm 18 °C 19.1 °C 19.4 °C 18.3 °C 37630 m 0   6 min 220.7 W/m² 1022.8 hPa
11:12 23.5 °C 13.4 °C 53 % 8 km/h (13 km/h) 0 mm0 mm 17.9 °C 19.1 °C 19.4 °C 18.3 °C 19940 m 0   6 min 215.4 W/m² 1022.8 hPa
11:06 23.4 °C 14.4 °C 57 % 7 km/h (13 km/h) 0 mm0 mm 17.9 °C 19.1 °C 19.4 °C 18.3 °C 19940 m 0   6 min 217.3 W/m² 1022.8 hPa
11:00 22.8 °C 15.1 °C 62 % 5 km/h (8 km/h) 0 mm0 mm 17.9 °C 19.2 °C 19.4 °C 18.3 °C 58780 m 0   6 min 208 W/m² 1022.7 hPa
10:54 22.6 °C 13.6 °C 57 % 4 km/h (7 km/h) 0 mm0 mm 17.8 °C 19.2 °C 19.4 °C 18.3 °C 56350 m 0   6 min 200.2 W/m² 1022.6 hPa
10:48 22.6 °C 14.4 °C 60 % 3 km/h (6 km/h) 0 mm0 mm 17.9 °C 19.2 °C 19.4 °C 18.3 °C 59510 m 0   6 min 195.6 W/m² 1022.6 hPa
10:42 22.4 °C 14 °C 59 % 3 km/h (5 km/h) 0 mm0 mm 17.8 °C 19.2 °C 19.4 °C 18.3 °C 50890 m 0   6 min 194.1 W/m² 1022.7 hPa
10:36 22.3 °C 14.2 °C 60 % 3 km/h (6 km/h) 0 mm0 mm 17.8 °C 19.2 °C 19.4 °C 18.3 °C 53080 m 0   6 min 190.6 W/m² 1022.7 hPa
10:30 21.9 °C 13.8 °C 60 % 2 km/h (6 km/h) 0 mm0 mm 17.8 °C 19.2 °C 19.4 °C 18.3 °C 59020 m 0   6 min 185.3 W/m² 1022.8 hPa
10:24 21.5 °C 13.9 °C 62 % 0 km/h (3 km/h) 0 mm0 mm 17.8 °C 19.2 °C 19.4 °C 18.3 °C 53070 m 0   6 min 180 W/m² 1022.9 hPa
10:18 21.1 °C 13.3 °C 61 % 3 km/h (6 km/h) 0 mm0 mm 17.8 °C 19.2 °C 19.4 °C 18.3 °C 56210 m 0   6 min 173.4 W/m² 1022.9 hPa
10:12 20.8 °C 13 °C 61 % 4 km/h (6 km/h) 0 mm0 mm 17.7 °C 19.2 °C 19.4 °C 18.3 °C 19600 m 0   6 min 166.8 W/m² 1022.9 hPa
10:06 20.5 °C 13.5 °C 64 % 4 km/h (6 km/h) 0 mm0 mm 17.7 °C 19.3 °C 19.5 °C 18.3 °C 19600 m 0   6 min 161.8 W/m² 1023 hPa
10:00 20.2 °C 12.7 °C 62 % 4 km/h (6 km/h) 0 mm0 mm 17.7 °C 19.3 °C 19.4 °C 18.3 °C 55190 m 0   6 min 154.4 W/m² 1023.2 hPa
09:54 19.9 °C 13.4 °C 66 % 3 km/h (6 km/h) 0 mm0 mm 17.7 °C 19.3 °C 19.4 °C 18.3 °C 57670 m 0   6 min 149.6 W/m² 1023.2 hPa
09:48 19.3 °C 12.8 °C 66 % 4 km/h (6 km/h) 0 mm0 mm 17.7 °C 19.3 °C 19.4 °C 18.3 °C 54590 m 0   6 min 143.5 W/m² 1023.4 hPa
09:42 18.6 °C 12.6 °C 68 % 5 km/h (10 km/h) 0 mm0 mm 17.7 °C 19.3 °C 19.4 °C 18.3 °C 46170 m 0   6 min 137.4 W/m² 1023.6 hPa
09:36 17.9 °C 12.8 °C 72 % 6 km/h (10 km/h) 0 mm0 mm 17.7 °C 19.3 °C 19.4 °C 18.3 °C 41520 m 0   6 min 131.6 W/m² 1023.6 hPa
09:30 17.5 °C 12.6 °C 73 % 6 km/h (11 km/h) 0 mm0 mm 17.7 °C 19.3 °C 19.4 °C 18.3 °C 47060 m 0   6 min 125 W/m² 1023.6 hPa
09:24 17.2 °C 12.7 °C 75 % 5 km/h (8 km/h) 0 mm0 mm 17.7 °C 19.3 °C 19.4 °C 18.3 °C 40300 m 0   6 min 118.5 W/m² 1023.7 hPa
09:18 16.6 °C 12.5 °C 77 % 5 km/h (8 km/h) 0 mm0 mm 17.7 °C 19.3 °C 19.4 °C 18.2 °C 44350 m 0   6 min 111.9 W/m² 1023.9 hPa
09:12 16.3 °C 13.2 °C 82 % 5 km/h (8 km/h) 0 mm0 mm 17.7 °C 19.3 °C 19.4 °C 18.3 °C 43190 m 0   6 min 105.4 W/m² 1023.8 hPa
09:06 16 °C 12.7 °C 81 % 4 km/h (6 km/h) 0 mm0 mm 17.7 °C 19.4 °C 19.4 °C 18.3 °C 41480 m 0   6 min 98.2 W/m² 1023.9 hPa
09:00 15.4 °C 12.7 °C 84 % 5 km/h (6 km/h) 0 mm0 mm 17.7 °C 19.4 °C 19.4 °C 18.3 °C 50540 m 0   6 min 89.9 W/m² 1024.1 hPa
08:54 14.8 °C 11.8 °C 82 % 5 km/h (6 km/h) 0 mm0 mm 17.7 °C 19.4 °C 19.4 °C 18.3 °C 52450 m 0   6 min 81.1 W/m² 1024.3 hPa
08:48 14.5 °C 11.6 °C 83 % 5 km/h (6 km/h) 0 mm0 mm 17.7 °C 19.4 °C 19.4 °C 18.3 °C 43020 m 0   6 min 75.2 W/m² 1024.3 hPa
08:42 14.3 °C 12 °C 86 % 5 km/h (6 km/h) 0 mm0 mm 17.8 °C 19.4 °C 19.4 °C 18.3 °C 44730 m 0   6 min 71.2 W/m² 1024.3 hPa
08:36 14.2 °C 12.1 °C 87 % 4 km/h (6 km/h) 0 mm0 mm 17.8 °C 19.5 °C 19.4 °C 18.3 °C 41580 m 0   6 min 65.3 W/m² 1024.3 hPa
08:30 13.6 °C 11.8 °C 89 % 4 km/h (6 km/h) 0 mm0 mm 17.8 °C 19.4 °C 19.4 °C 18.3 °C 50230 m 0   6 min 57.7 W/m² 1024.5 hPa
08:24 12.8 °C 11.4 °C 91 % 4 km/h (5 km/h) 0 mm0 mm 17.8 °C 19.5 °C 19.4 °C 18.3 °C 51490 m 6 min 48.8 W/m² 1024.6 hPa
08:18 12.2 °C 10.9 °C 92 % 4 km/h (6 km/h) 0 mm0 mm 17.9 °C 19.5 °C 19.4 °C 18.3 °C 47750 m 1   6 min 37.2 W/m² 1024.6 hPa
08:12 11.8 °C 10.5 °C 92 % 5 km/h (8 km/h) 0 mm0 mm 17.9 °C 19.5 °C 19.4 °C 18.3 °C 43380 m 1   6 min 37.3 W/m² 1024.8 hPa
08:06 11.4 °C 10.3 °C 93 % 7 km/h (9 km/h) 0 mm0 mm 17.9 °C 19.5 °C 19.4 °C 18.3 °C 25400 m 1   6 min 32.1 W/m² 1024.8 hPa
08:00 11.3 °C 10.4 °C 94 % 7 km/h (9 km/h) 0 mm0 mm 17.9 °C 19.5 °C 19.4 °C 18.3 °C 19910 m 1   6 min 25.7 W/m² 1024.7 hPa
07:54 11.1 °C 10.5 °C 96 % 8 km/h (10 km/h) 0 mm0 mm 17.9 °C 19.5 °C 19.4 °C 18.3 °C 19910 m 0   6 min 22.3 W/m² 1024.7 hPa
07:48 10.7 °C 9.9 °C 95 % 7 km/h (10 km/h) 0 mm0 mm 18 °C 19.5 °C 19.4 °C 18.3 °C 38170 m 0   6 min 19.1 W/m² 1024.7 hPa
07:42 10.4 °C 9.8 °C 96 % 5 km/h (7 km/h) 0 mm0 mm 18 °C 19.5 °C 19.4 °C 18.3 °C 52210 m 0   4 min 13 W/m² 1024.8 hPa
07:36 10.3 °C 9.7 °C 96 % 7 km/h (8 km/h) 0 mm0 mm 18 °C 19.5 °C 19.4 °C 18.3 °C 53980 m 0 min 7.2 W/m² 1025 hPa
07:30 10.1 °C 9.2 °C 94 % 8 km/h (9 km/h) 0 mm0 mm 18 °C 19.6 °C 19.4 °C 18.3 °C 55980 m 0   0 min 0 W/m² 1024.8 hPa
07:24 10.4 °C 9.5 °C 94 % 6 km/h (8 km/h) 0 mm0 mm 18 °C 19.6 °C 19.4 °C 18.3 °C 59610 m 0   0 min 0 W/m² 1024.6 hPa
07:18 10.7 °C 9.5 °C 92 % 5 km/h (6 km/h) 0 mm0 mm 18.1 °C 19.6 °C 19.4 °C 18.3 °C 58640 m 0   0 min 0 W/m² 1024.4 hPa
07:12 11.4 °C 10.5 °C 94 % 5 km/h (6 km/h) 0 mm0 mm 18.1 °C 19.6 °C 19.4 °C 18.3 °C 58120 m 0   0 min 0 W/m² 1024.2 hPa
07:06 11.1 °C 10.5 °C 96 % 4 km/h (5 km/h) 0 mm0 mm 18.1 °C 19.6 °C 19.4 °C 18.3 °C 58660 m 0   0 min 0 W/m² 1024.3 hPa
07:00 10.7 °C 10.4 °C 98 % 4 km/h (6 km/h) 0 mm0 mm 18.2 °C 19.6 °C 19.4 °C 18.3 °C 59890 m 0   0 min 0 W/m² 1024.3 hPa
06:54 10.4 °C 10.1 °C 98 % 4 km/h (6 km/h) 0 mm0 mm 18.1 °C 19.6 °C 19.4 °C 18.3 °C 59820 m 0   0 min 0 W/m² 1024.4 hPa
06:48 10.2 °C 9.9 °C 98 % 3 km/h (5 km/h) 0 mm0 mm 18.2 °C 19.6 °C 19.4 °C 18.3 °C 58790 m 0   0 min 0 W/m² 1024.3 hPa
06:42 10.4 °C 9.9 °C 97 % 3 km/h (4 km/h) 0 mm0 mm 18.2 °C 19.7 °C 19.4 °C 18.3 °C 59250 m 0   0 min 0 W/m² 1024.3 hPa
06:36 10.4 °C 10.1 °C 98 % 4 km/h (6 km/h) 0 mm0 mm 18.2 °C 19.7 °C 19.4 °C 18.3 °C 55160 m 0   0 min 0 W/m² 1024.3 hPa
06:30 10.4 °C 10.1 °C 98 % 5 km/h (6 km/h) 0 mm0 mm 18.2 °C 19.7 °C 19.4 °C 18.3 °C 47890 m 0   0 min 0 W/m² 1024.3 hPa
06:24 10.2 °C 9.4 °C 95 % 5 km/h (6 km/h) 0 mm0 mm 18.2 °C 19.7 °C 19.4 °C 18.3 °C 47120 m 0   0 min 0 W/m² 1024.2 hPa
06:18 10.4 °C 9.8 °C 96 % 4 km/h (5 km/h) 0 mm0 mm 18.2 °C 19.7 °C 19.4 °C 18.3 °C 51620 m 0   0 min 0 W/m² 1024.2 hPa
06:12 10.5 °C 9.7 °C 95 % 4 km/h (5 km/h) 0 mm0 mm 18.3 °C 19.7 °C 19.4 °C 18.3 °C 56830 m 0   0 min 0 W/m² 1024.3 hPa
06:06 10.6 °C 10.1 °C 97 % 5 km/h (6 km/h) 0 mm0 mm 18.3 °C 19.7 °C 19.4 °C 18.3 °C 58970 m 0   0 min 0 W/m² 1024.2 hPa
06:00 10.6 °C 10 °C 96 % 4 km/h (6 km/h) 0 mm0 mm 18.3 °C 19.7 °C 19.4 °C 18.3 °C 58820 m 0   0 min 0 W/m² 1024.2 hPa
05:54 10.5 °C 9.4 °C 93 % 5 km/h (6 km/h) 0 mm0 mm 18.4 °C 19.7 °C 19.4 °C 18.3 °C 59660 m 0   0 min 0 W/m² 1024.3 hPa
05:48 10.7 °C 9.6 °C 93 % 7 km/h (10 km/h) 0 mm0 mm 18.4 °C 19.7 °C 19.4 °C 18.3 °C 56240 m 0   0 min 0 W/m² 1024.2 hPa
05:42 11 °C 10.1 °C 94 % 8 km/h (10 km/h) 0 mm0 mm 18.4 °C 19.8 °C 19.4 °C 18.3 °C 55550 m 0   0 min 0 W/m² 1024.1 hPa
05:36 11.1 °C 10 °C 93 % 7 km/h (8 km/h) 0 mm0 mm 18.4 °C 19.8 °C 19.4 °C 18.3 °C 58750 m 0   0 min 0 W/m² 1024.1 hPa
05:30 11.3 °C 10.2 °C 93 % 6 km/h (7 km/h) 0 mm0 mm 18.4 °C 19.8 °C 19.4 °C 18.3 °C 59910 m 0   0 min 0 W/m² 1023.9 hPa
05:24 11.2 °C 10.1 °C 93 % 5 km/h (8 km/h) 0 mm0 mm 18.5 °C 19.8 °C 19.4 °C 18.3 °C 60000 m 0   0 min 0 W/m² 1024 hPa
05:18 11.5 °C 9.9 °C 90 % 7 km/h (9 km/h) 0 mm0 mm 18.5 °C 19.8 °C 19.4 °C 18.3 °C 60000 m 0   0 min 0 W/m² 1023.9 hPa
05:12 11.9 °C 10.5 °C 91 % 8 km/h (10 km/h) 0 mm0 mm 18.5 °C 19.8 °C 19.4 °C 18.3 °C 60000 m 0   0 min 0 W/m² 1023.7 hPa
05:06 11.9 °C 10.1 °C 89 % 7 km/h (9 km/h) 0 mm0 mm 18.5 °C 19.8 °C 19.4 °C 18.3 °C 60000 m 0   0 min 0 W/m² 1023.6 hPa
05:00 12.4 °C 10.6 °C 89 % 5 km/h (7 km/h) 0 mm0 mm 18.6 °C 19.8 °C 19.4 °C 18.3 °C 60000 m 0   0 min 0 W/m² 1023.5 hPa
04:54 12.4 °C 10.8 °C 90 % 4 km/h (5 km/h) 0 mm0 mm 18.6 °C 19.8 °C 19.4 °C 18.3 °C 60000 m 0   0 min 0 W/m² 1023.4 hPa
04:48 11.9 °C 10.8 °C 93 % 3 km/h (4 km/h) 0 mm0 mm 18.6 °C 19.8 °C 19.4 °C 18.3 °C 60000 m 0   0 min 0 W/m² 1023.5 hPa
04:42 11.8 °C 10 °C 89 % 3 km/h (4 km/h) 0 mm0 mm 18.6 °C 19.9 °C 19.4 °C 18.3 °C 60000 m 0   0 min 0 W/m² 1023.5 hPa
04:36 11.9 °C 10.8 °C 93 % 3 km/h (5 km/h) 0 mm0 mm 18.6 °C 19.9 °C 19.4 °C 18.3 °C 60000 m 0   0 min 0 W/m² 1023.4 hPa
04:30 11.6 °C 10.5 °C 93 % 4 km/h (5 km/h) 0 mm0 mm 18.6 °C 19.8 °C 19.3 °C 18.3 °C 60000 m 0   0 min 0 W/m² 1023.4 hPa
04:24 11.8 °C 10.4 °C 91 % 4 km/h (5 km/h) 0 mm0 mm 18.7 °C 19.9 °C 19.4 °C 18.3 °C 60000 m 0   0 min 0 W/m² 1023.5 hPa
04:18 12 °C 10.6 °C 91 % 5 km/h (6 km/h) 0 mm0 mm 18.7 °C 19.9 °C 19.4 °C 18.3 °C 60000 m 0   0 min 0 W/m² 1023.4 hPa
04:12 12.1 °C 10.8 °C 92 % 5 km/h (6 km/h) 0 mm0 mm 18.7 °C 19.9 °C 19.4 °C 18.3 °C 60000 m 0   0 min 0 W/m² 1023.4 hPa
04:06 12.3 °C 11 °C 92 % 7 km/h (10 km/h) 0 mm0 mm 18.7 °C 19.9 °C 19.4 °C 18.3 °C 60000 m 0   0 min 0 W/m² 1023.2 hPa
04:00 11.9 °C 10.3 °C 90 % 9 km/h (10 km/h) 0 mm0 mm 18.7 °C 19.9 °C 19.4 °C 18.3 °C 60000 m 0   0 min 0 W/m² 1023.2 hPa
03:54 12.2 °C 10.3 °C 88 % 9 km/h (10 km/h) 0 mm0 mm 18.8 °C 19.9 °C 19.4 °C 18.3 °C 60000 m 0   0 min 0 W/m² 1023.1 hPa
03:48 12.5 °C 10.7 °C 89 % 7 km/h (9 km/h) 0 mm0 mm 18.8 °C 19.9 °C 19.4 °C 18.3 °C 60000 m 0   0 min 0 W/m² 1023.2 hPa
03:42 12.6 °C 10.7 °C 88 % 6 km/h (8 km/h) 0 mm0 mm 18.8 °C 19.9 °C 19.4 °C 18.3 °C 60000 m 0   0 min 0 W/m² 1023.2 hPa
03:36 12.3 °C 10.2 °C 87 % 6 km/h (8 km/h) 0 mm0 mm 18.8 °C 19.9 °C 19.4 °C 18.3 °C 60000 m 0   0 min 0 W/m² 1023.3 hPa
03:30 12.6 °C 10.7 °C 88 % 5 km/h (6 km/h) 0 mm0 mm 18.8 °C 19.9 °C 19.4 °C 18.3 °C 60000 m 0   0 min 0 W/m² 1023.2 hPa
03:24 12.9 °C 11 °C 88 % 6 km/h (7 km/h) 0 mm0 mm 18.9 °C 19.9 °C 19.4 °C 18.3 °C 60000 m 0   0 min 0 W/m² 1023.2 hPa
03:18 12.3 °C 10.7 °C 90 % 6 km/h (9 km/h) 0 mm0 mm 18.9 °C 20 °C 19.4 °C 18.3 °C 60000 m 0   0 min 0 W/m² 1023.3 hPa
03:12 12.5 °C 10.6 °C 88 % 6 km/h (9 km/h) 0 mm0 mm 18.9 °C 20 °C 19.4 °C 18.3 °C 60000 m 0   0 min 0 W/m² 1023.3 hPa
03:06 12.3 °C 10.4 °C 88 % 7 km/h (9 km/h) 0 mm0 mm 18.9 °C 20 °C 19.4 °C 18.3 °C 60000 m 0   0 min 0 W/m² 1023.4 hPa
03:00 13.1 °C 10.5 °C 84 % 5 km/h (9 km/h) 0 mm0 mm 18.9 °C 20 °C 19.4 °C 18.3 °C 60000 m 0   0 min 0 W/m² 1023.2 hPa
02:54 13.6 °C 11.1 °C 85 % 4 km/h (6 km/h) 0 mm0 mm 19 °C 20 °C 19.4 °C 18.3 °C 60000 m 0   0 min 0 W/m² 1023.2 hPa
02:48 13.4 °C 11.3 °C 87 % 2 km/h (4 km/h) 0 mm0 mm 19 °C 20 °C 19.3 °C 18.3 °C 60000 m 0   0 min 0 W/m² 1023.3 hPa
02:42 12.9 °C 11 °C 88 % 4 km/h (6 km/h) 0 mm0 mm 19 °C 20 °C 19.3 °C 18.3 °C 60000 m 0   0 min 0 W/m² 1023.5 hPa
02:36 13 °C 10.9 °C 87 % 5 km/h (6 km/h) 0 mm0 mm 19 °C 20 °C 19.4 °C 18.3 °C 60000 m 0   0 min 0 W/m² 1023.4 hPa
02:30 13.1 °C 10.3 °C 83 % 5 km/h (8 km/h) 0 mm0 mm 19.1 °C 20 °C 19.4 °C 18.3 °C 60000 m 0   0 min 0 W/m² 1023.3 hPa
02:24 13.5 °C 11 °C 85 % 5 km/h (7 km/h) 0 mm0 mm 19.1 °C 20 °C 19.3 °C 18.3 °C 60000 m 0   0 min 0 W/m² 1023.2 hPa
02:18 13.6 °C 11.3 °C 86 % 6 km/h (7 km/h) 0 mm0 mm 19.1 °C 20 °C 19.3 °C 18.3 °C 60000 m 0   0 min 0 W/m² 1023.1 hPa
02:12 13.5 °C 11.2 °C 86 % 6 km/h (8 km/h) 0 mm0 mm 19.1 °C 20 °C 19.3 °C 18.3 °C 60000 m 0   0 min 0 W/m² 1023.1 hPa
02:06 13.3 °C 11.2 °C 87 % 7 km/h (9 km/h) 0 mm0 mm 19.1 °C 20.1 °C 19.4 °C 18.3 °C 60000 m 0   0 min 0 W/m² 1023.3 hPa
02:00 13.5 °C 11 °C 85 % 6 km/h (9 km/h) 0 mm0 mm 19.2 °C 20 °C 19.3 °C 18.3 °C 60000 m 0   0 min 0 W/m² 1023.1 hPa
01:54 13.5 °C 11.2 °C 86 % 4 km/h (8 km/h) 0 mm0 mm 19.2 °C 20 °C 19.3 °C 18.3 °C 60000 m 0   0 min 0 W/m² 1023.1 hPa
01:48 13.5 °C 11 °C 85 % 6 km/h (10 km/h) 0 mm0 mm 19.2 °C 20 °C 19.3 °C 18.3 °C 60000 m 0   0 min 0 W/m² 1023.2 hPa
01:42 13.8 °C 11.3 °C 85 % 7 km/h (12 km/h) 0 mm0 mm 19.2 °C 20.1 °C 19.3 °C 18.3 °C 60000 m 0   0 min 0 W/m² 1023.1 hPa
01:36 13.4 °C 11.1 °C 86 % 5 km/h (10 km/h) 0 mm0 mm 19.2 °C 20.1 °C 19.3 °C 18.3 °C 60000 m 0   0 min 0 W/m² 1023.1 hPa
01:30 13.5 °C 11 °C 85 % 6 km/h (10 km/h) 0 mm0 mm 19.3 °C 20.1 °C 19.3 °C 18.3 °C 60000 m 0   0 min 0 W/m² 1023.2 hPa
01:24 13.7 °C 10.9 °C 83 % 8 km/h (10 km/h) 0 mm0 mm 19.3 °C 20.1 °C 19.3 °C 18.3 °C 60000 m 0   0 min 0 W/m² 1023.1 hPa
01:18 14.2 °C 11.4 °C 83 % 7 km/h (9 km/h) 0 mm0 mm 19.3 °C 20.1 °C 19.3 °C 18.3 °C 60000 m 0   0 min 0 W/m² 1022.8 hPa
01:12 14.1 °C 11.6 °C 85 % 7 km/h (8 km/h) 0 mm0 mm 19.3 °C 20.1 °C 19.3 °C 18.3 °C 60000 m 0   0 min 0 W/m² 1022.9 hPa
01:06 13.7 °C 11 °C 84 % 6 km/h (8 km/h) 0 mm0 mm 19.4 °C 20.1 °C 19.3 °C 18.3 °C 60000 m 0   0 min 0 W/m² 1023.1 hPa
01:00 13.9 °C 11.2 °C 84 % 6 km/h (8 km/h) 0 mm0 mm 19.4 °C 20.1 °C 19.3 °C 18.3 °C 60000 m 0   0 min 0 W/m² 1023 hPa
00:54 14 °C 11.2 °C 83 % 7 km/h (8 km/h) 0 mm0 mm 19.4 °C 20.1 °C 19.3 °C 18.3 °C 60000 m 0   0 min 0 W/m² 1023 hPa
00:48 14.4 °C 11.2 °C 81 % 6 km/h (8 km/h) 0 mm0 mm 19.5 °C 20.1 °C 19.3 °C 18.3 °C 60000 m 0   0 min 0 W/m² 1022.9 hPa
00:42 14.9 °C 11.5 °C 80 % 5 km/h (7 km/h) 0 mm0 mm 19.5 °C 20.1 °C 19.3 °C 18.3 °C 60000 m 0   0 min 0 W/m² 1022.6 hPa
00:36 15 °C 11.6 °C 80 % 6 km/h (8 km/h) 0 mm0 mm 19.5 °C 20.1 °C 19.3 °C 18.3 °C 60000 m 0   0 min 0 W/m² 1022.7 hPa
00:30 15.1 °C 11.5 °C 79 % 6 km/h (8 km/h) 0 mm0 mm 19.5 °C 20.1 °C 19.3 °C 18.3 °C 60000 m 0   0 min 0 W/m² 1022.6 hPa
00:24 15.2 °C 11.6 °C 79 % 7 km/h (8 km/h) 0 mm0 mm 19.5 °C 20.1 °C 19.3 °C 18.3 °C 60000 m 0   0 min 0 W/m² 1022.5 hPa
00:18 15.3 °C 11.5 °C 78 % 7 km/h (8 km/h) 0 mm0 mm 19.6 °C 20.1 °C 19.3 °C 18.3 °C 60000 m 0   0 min 0 W/m² 1022.5 hPa
00:12 15.4 °C 11.6 °C 78 % 8 km/h (9 km/h) 0 mm0 mm 19.6 °C 20.1 °C 19.3 °C 18.3 °C 60000 m 0   0 min 0 W/m² 1022.5 hPa
00:06 15.5 °C 11.7 °C 78 % 7 km/h (8 km/h) 0 mm0 mm 19.6 °C 20.1 °C 19.3 °C 18.3 °C 60000 m 0   0 min 0 W/m² 1022.5 hPa
00:00 15.7 °C 11.7 °C 77 % 6 km/h (8 km/h) 0 mm0 mm 19.6 °C 20.1 °C 19.3 °C 18.3 °C 60000 m 0   0 min 0 W/m² 1022.4 hPa

Données via Météo-France

Relevés météo à Aurillac

Cette page rassemble les observations de la station de Aurillac : température, humidité, vent, précipitations et pression atmosphérique. Les graphiques facilitent le suivi de la journée, tandis que le tableau donne accès aux mesures horaires et infra-horaires disponibles.

Pour replacer ces mesures dans leur contexte, consultez la climatologie de Aurillac ainsi que ses normales et records. Retrouvez aussi la carte des observations météo en temps réel.